KBZN/BZN METAR and TAF weather

Enter ICAO airport designator
Station Type Date Time Source
KBZN METAR 2019/04/21 22:56 UTC NOAA

KBZN 212256Z 12011KT 10SM FEW034 OVC048 08/02 A3015 RMK AO2 SLP211 T00830022


Station Type Date Time Source
KBZN Decoded METAR 2019/04/21 22:56 UTC NOAA

BOZEMAN GALLATIN FIELD, MT, United States (KBZN) 45-47N 111-09W 1361M
Apr 21, 2019 - 06:56 PM EDT / 2019.04.21 2256 UTC
Wind: from the ESE (120 degrees) at 13 MPH (11 KT):0
Visibility: 10 mile(s):0
Sky conditions: overcast
Temperature: 46.9 F (8.3 C)
Dew Point: 36.0 F (2.2 C)
Relative Humidity: 65%
Pressure (altimeter): 30.15 in. Hg (1020 hPa)
ob: KBZN 212256Z 12011KT 10SM FEW034 OVC048 08/02 A3015 RMK AO2 SLP211 T00830022
cycle: 23

Station Type Date Time Source
KBZN TAF 2019/04/21 18:46 UTC NOAA

TAF KBZN 211743Z 2118/2224 VRB03KT P6SM VCSH SCT030 BKN070
FM212100 VRB03KT P6SM SCT050 BKN080
FM221200 VRB02KT 6SM BR FEW020 SCT120
FM221600 VRB03KT P6SM SCT150

Example: see airport list